sensor_id;sensor_type;location;lat;lon;timestamp;temperature;humidity
11838;DHT22;5978;51.020;6.764;2023-07-31T00:00:06;16.60;99.90
11838;DHT22;5978;51.020;6.764;2023-07-31T00:02:34;16.60;99.90
11838;DHT22;5978;51.020;6.764;2023-07-31T00:05:00;16.70;99.90
11838;DHT22;5978;51.020;6.764;2023-07-31T00:07:26;16.60;99.90
11838;DHT22;5978;51.020;6.764;2023-07-31T00:09:51;16.70;99.90
11838;DHT22;5978;51.020;6.764;2023-07-31T00:12:19;16.60;99.90
11838;DHT22;5978;51.020;6.764;2023-07-31T00:14:44;16.70;99.90
11838;DHT22;5978;51.020;6.764;2023-07-31T00:17:10;16.70;99.90
11838;DHT22;5978;51.020;6.764;2023-07-31T00:19:36;16.70;99.90
11838;DHT22;5978;51.020;6.764;2023-07-31T00:22:01;16.60;99.90
11838;DHT22;5978;51.020;6.764;2023-07-31T00:24:27;16.60;99.90
11838;DHT22;5978;51.020;6.764;2023-07-31T00:26:52;16.60;99.90
11838;DHT22;5978;51.020;6.764;2023-07-31T00:29:18;16.60;99.90
11838;DHT22;5978;51.020;6.764;2023-07-31T00:31:44;16.60;99.90
11838;DHT22;5978;51.020;6.764;2023-07-31T00:34:09;16.70;99.90
11838;DHT22;5978;51.020;6.764;2023-07-31T00:36:35;16.70;99.90
11838;DHT22;5978;51.020;6.764;2023-07-31T00:39:00;16.80;99.90
11838;DHT22;5978;51.020;6.764;2023-07-31T00:41:26;16.80;99.90
11838;DHT22;5978;51.020;6.764;2023-07-31T00:43:52;16.80;99.90
11838;DHT22;5978;51.020;6.764;2023-07-31T00:46:17;16.90;99.90
11838;DHT22;5978;51.020;6.764;2023-07-31T00:48:43;16.90;99.90
11838;DHT22;5978;51.020;6.764;2023-07-31T00:51:09;16.90;99.90
11838;DHT22;5978;51.020;6.764;2023-07-31T00:53:35;17.00;99.90
11838;DHT22;5978;51.020;6.764;2023-07-31T00:56:01;17.00;99.90
11838;DHT22;5978;51.020;6.764;2023-07-31T00:58:27;17.00;99.90
11838;DHT22;5978;51.020;6.764;2023-07-31T01:00:53;17.00;99.90
11838;DHT22;5978;51.020;6.764;2023-07-31T01:03:18;17.00;99.90
11838;DHT22;5978;51.020;6.764;2023-07-31T01:06:25;17.10;99.90
11838;DHT22;5978;51.020;6.764;2023-07-31T01:09:02;17.10;99.90
11838;DHT22;5978;51.020;6.764;2023-07-31T01:11:31;17.10;99.90
11838;DHT22;5978;51.020;6.764;2023-07-31T01:13:58;17.10;99.90
11838;DHT22;5978;51.020;6.764;2023-07-31T01:16:25;17.10;99.90
11838;DHT22;5978;51.020;6.764;2023-07-31T01:18:52;17.10;99.90
11838;DHT22;5978;51.020;6.764;2023-07-31T01:24:20;17.10;99.90
11838;DHT22;5978;51.020;6.764;2023-07-31T01:26:53;17.10;99.90
11838;DHT22;5978;51.020;6.764;2023-07-31T01:29:43;17.10;99.90
11838;DHT22;5978;51.020;6.764;2023-07-31T01:32:12;17.10;99.90
11838;DHT22;5978;51.020;6.764;2023-07-31T01:34:39;17.10;99.90
11838;DHT22;5978;51.020;6.764;2023-07-31T01:37:05;17.10;99.90
11838;DHT22;5978;51.020;6.764;2023-07-31T01:39:30;17.10;99.90
11838;DHT22;5978;51.020;6.764;2023-07-31T01:41:56;17.20;99.90
11838;DHT22;5978;51.020;6.764;2023-07-31T01:44:21;17.20;99.90
11838;DHT22;5978;51.020;6.764;2023-07-31T01:46:47;17.20;99.90
11838;DHT22;5978;51.020;6.764;2023-07-31T01:49:12;17.30;99.90
11838;DHT22;5978;51.020;6.764;2023-07-31T01:51:38;17.30;99.90
11838;DHT22;5978;51.020;6.764;2023-07-31T01:54:04;17.30;99.90
11838;DHT22;5978;51.020;6.764;2023-07-31T01:56:29;17.30;99.90
11838;DHT22;5978;51.020;6.764;2023-07-31T01:58:55;17.30;99.90
11838;DHT22;5978;51.020;6.764;2023-07-31T02:01:20;17.30;99.90
11838;DHT22;5978;51.020;6.764;2023-07-31T02:03:46;17.40;99.90
11838;DHT22;5978;51.020;6.764;2023-07-31T02:06:12;17.50;99.90
11838;DHT22;5978;51.020;6.764;2023-07-31T02:08:37;17.50;99.90
11838;DHT22;5978;51.020;6.764;2023-07-31T02:11:03;17.50;99.90
11838;DHT22;5978;51.020;6.764;2023-07-31T02:13:29;17.50;99.90
11838;DHT22;5978;51.020;6.764;2023-07-31T02:15:54;17.50;99.90
11838;DHT22;5978;51.020;6.764;2023-07-31T02:18:20;17.50;99.90
11838;DHT22;5978;51.020;6.764;2023-07-31T02:20:51;17.50;99.90
11838;DHT22;5978;51.020;6.764;2023-07-31T02:23:20;17.50;99.90
11838;DHT22;5978;51.020;6.764;2023-07-31T02:25:46;17.50;99.90
11838;DHT22;5978;51.020;6.764;2023-07-31T02:28:12;17.50;99.90
11838;DHT22;5978;51.020;6.764;2023-07-31T02:30:38;17.50;99.90
11838;DHT22;5978;51.020;6.764;2023-07-31T02:33:04;17.60;99.90
11838;DHT22;5978;51.020;6.764;2023-07-31T02:35:30;17.60;99.90
11838;DHT22;5978;51.020;6.764;2023-07-31T02:37:56;17.60;99.90
11838;DHT22;5978;51.020;6.764;2023-07-31T02:40:21;17.60;99.90
11838;DHT22;5978;51.020;6.764;2023-07-31T02:42:47;17.60;99.90
11838;DHT22;5978;51.020;6.764;2023-07-31T02:45:13;17.60;99.90
11838;DHT22;5978;51.020;6.764;2023-07-31T02:47:38;17.60;99.90
11838;DHT22;5978;51.020;6.764;2023-07-31T02:50:04;17.60;99.90
11838;DHT22;5978;51.020;6.764;2023-07-31T02:52:30;17.60;99.90
11838;DHT22;5978;51.020;6.764;2023-07-31T02:54:55;17.60;99.90
11838;DHT22;5978;51.020;6.764;2023-07-31T02:57:21;17.60;99.90
11838;DHT22;5978;51.020;6.764;2023-07-31T02:59:47;17.60;99.90
11838;DHT22;5978;51.020;6.764;2023-07-31T03:02:12;17.60;99.90
11838;DHT22;5978;51.020;6.764;2023-07-31T03:04:38;17.60;99.90
11838;DHT22;5978;51.020;6.764;2023-07-31T03:07:04;17.70;99.90
11838;DHT22;5978;51.020;6.764;2023-07-31T03:09:30;17.70;99.90
11838;DHT22;5978;51.020;6.764;2023-07-31T03:11:56;17.70;99.90
11838;DHT22;5978;51.020;6.764;2023-07-31T03:14:21;17.70;99.90
11838;DHT22;5978;51.020;6.764;2023-07-31T03:16:47;17.70;99.90
11838;DHT22;5978;51.020;6.764;2023-07-31T03:19:13;17.70;99.90
11838;DHT22;5978;51.020;6.764;2023-07-31T03:21:38;17.70;99.90
11838;DHT22;5978;51.020;6.764;2023-07-31T03:24:04;17.70;99.90
11838;DHT22;5978;51.020;6.764;2023-07-31T03:26:31;17.70;99.90
11838;DHT22;5978;51.020;6.764;2023-07-31T03:28:57;17.70;99.90
11838;DHT22;5978;51.020;6.764;2023-07-31T03:31:23;17.70;99.90
11838;DHT22;5978;51.020;6.764;2023-07-31T03:33:48;17.70;99.90
11838;DHT22;5978;51.020;6.764;2023-07-31T03:36:14;17.70;99.90
11838;DHT22;5978;51.020;6.764;2023-07-31T03:38:39;17.70;99.90
11838;DHT22;5978;51.020;6.764;2023-07-31T03:41:05;17.70;99.90
11838;DHT22;5978;51.020;6.764;2023-07-31T03:43:32;17.60;99.90
11838;DHT22;5978;51.020;6.764;2023-07-31T03:45:59;17.60;99.90
11838;DHT22;5978;51.020;6.764;2023-07-31T03:48:25;17.60;99.90
11838;DHT22;5978;51.020;6.764;2023-07-31T03:50:51;17.60;99.90
11838;DHT22;5978;51.020;6.764;2023-07-31T03:53:16;17.60;99.90
11838;DHT22;5978;51.020;6.764;2023-07-31T03:55:42;17.60;99.90
11838;DHT22;5978;51.020;6.764;2023-07-31T03:58:08;17.60;99.90
11838;DHT22;5978;51.020;6.764;2023-07-31T04:00:33;17.70;99.90
11838;DHT22;5978;51.020;6.764;2023-07-31T04:02:59;17.70;99.90
11838;DHT22;5978;51.020;6.764;2023-07-31T04:05:24;17.70;99.90
11838;DHT22;5978;51.020;6.764;2023-07-31T04:07:50;17.70;99.90
11838;DHT22;5978;51.020;6.764;2023-07-31T04:10:16;17.60;99.90
11838;DHT22;5978;51.020;6.764;2023-07-31T04:12:41;17.60;99.90
11838;DHT22;5978;51.020;6.764;2023-07-31T04:15:07;17.70;99.90
11838;DHT22;5978;51.020;6.764;2023-07-31T04:17:33;17.70;99.90
11838;DHT22;5978;51.020;6.764;2023-07-31T04:19:58;17.70;99.90
11838;DHT22;5978;51.020;6.764;2023-07-31T04:22:24;17.80;99.90
11838;DHT22;5978;51.020;6.764;2023-07-31T04:24:49;17.80;99.90
11838;DHT22;5978;51.020;6.764;2023-07-31T04:27:15;17.90;99.90
11838;DHT22;5978;51.020;6.764;2023-07-31T04:29:40;17.80;99.90
11838;DHT22;5978;51.020;6.764;2023-07-31T04:32:08;17.80;99.90
11838;DHT22;5978;51.020;6.764;2023-07-31T04:34:33;17.90;99.90
11838;DHT22;5978;51.020;6.764;2023-07-31T04:36:59;17.90;99.90
11838;DHT22;5978;51.020;6.764;2023-07-31T04:39:24;18.00;99.90
11838;DHT22;5978;51.020;6.764;2023-07-31T04:41:50;18.00;99.90
11838;DHT22;5978;51.020;6.764;2023-07-31T04:44:16;18.00;99.90
11838;DHT22;5978;51.020;6.764;2023-07-31T04:46:41;17.90;99.90
11838;DHT22;5978;51.020;6.764;2023-07-31T04:49:07;18.00;99.90
11838;DHT22;5978;51.020;6.764;2023-07-31T04:51:32;17.90;99.90
11838;DHT22;5978;51.020;6.764;2023-07-31T04:53:58;17.90;99.90
11838;DHT22;5978;51.020;6.764;2023-07-31T04:56:24;17.90;99.90
11838;DHT22;5978;51.020;6.764;2023-07-31T04:58:49;17.90;99.90
11838;DHT22;5978;51.020;6.764;2023-07-31T05:01:15;17.90;99.90
11838;DHT22;5978;51.020;6.764;2023-07-31T05:03:40;17.90;99.90
11838;DHT22;5978;51.020;6.764;2023-07-31T05:06:06;17.90;99.90
11838;DHT22;5978;51.020;6.764;2023-07-31T05:08:32;17.90;99.90
11838;DHT22;5978;51.020;6.764;2023-07-31T05:10:57;17.90;99.90
11838;DHT22;5978;51.020;6.764;2023-07-31T05:13:23;18.00;99.90
11838;DHT22;5978;51.020;6.764;2023-07-31T05:15:48;18.00;99.90
11838;DHT22;5978;51.020;6.764;2023-07-31T05:18:15;18.00;99.90
11838;DHT22;5978;51.020;6.764;2023-07-31T05:20:40;18.00;99.90
11838;DHT22;5978;51.020;6.764;2023-07-31T05:23:06;18.00;99.90
11838;DHT22;5978;51.020;6.764;2023-07-31T05:25:32;18.10;99.90
11838;DHT22;5978;51.020;6.764;2023-07-31T05:27:57;18.10;99.90
11838;DHT22;5978;51.020;6.764;2023-07-31T05:30:23;18.10;99.90
11838;DHT22;5978;51.020;6.764;2023-07-31T05:32:49;18.20;99.90
11838;DHT22;5978;51.020;6.764;2023-07-31T05:35:14;18.20;99.90
11838;DHT22;5978;51.020;6.764;2023-07-31T05:37:40;18.20;99.90
11838;DHT22;5978;51.020;6.764;2023-07-31T05:40:06;18.20;99.90
11838;DHT22;5978;51.020;6.764;2023-07-31T05:42:32;18.20;99.90
11838;DHT22;5978;51.020;6.764;2023-07-31T05:44:57;18.20;99.90
11838;DHT22;5978;51.020;6.764;2023-07-31T05:47:23;18.10;99.90
11838;DHT22;5978;51.020;6.764;2023-07-31T05:49:49;18.10;99.90
11838;DHT22;5978;51.020;6.764;2023-07-31T05:52:17;18.10;99.90
11838;DHT22;5978;51.020;6.764;2023-07-31T05:54:42;18.10;99.90
11838;DHT22;5978;51.020;6.764;2023-07-31T05:57:08;18.10;99.90
11838;DHT22;5978;51.020;6.764;2023-07-31T05:59:33;18.00;99.90
11838;DHT22;5978;51.020;6.764;2023-07-31T06:01:59;17.90;99.90
11838;DHT22;5978;51.020;6.764;2023-07-31T06:04:25;17.80;99.90
11838;DHT22;5978;51.020;6.764;2023-07-31T06:07:09;17.70;99.90
11838;DHT22;5978;51.020;6.764;2023-07-31T06:09:34;17.70;99.90
11838;DHT22;5978;51.020;6.764;2023-07-31T06:12:00;17.60;99.90
11838;DHT22;5978;51.020;6.764;2023-07-31T06:14:25;17.50;99.90
11838;DHT22;5978;51.020;6.764;2023-07-31T06:16:51;17.50;99.90
11838;DHT22;5978;51.020;6.764;2023-07-31T06:19:16;17.40;99.90
11838;DHT22;5978;51.020;6.764;2023-07-31T06:21:42;17.40;99.90
11838;DHT22;5978;51.020;6.764;2023-07-31T06:24:09;17.50;99.90
11838;DHT22;5978;51.020;6.764;2023-07-31T06:26:34;17.50;99.90
11838;DHT22;5978;51.020;6.764;2023-07-31T06:29:00;17.40;99.90
11838;DHT22;5978;51.020;6.764;2023-07-31T06:31:26;17.50;99.90
11838;DHT22;5978;51.020;6.764;2023-07-31T06:33:52;17.50;99.90
11838;DHT22;5978;51.020;6.764;2023-07-31T06:36:18;17.50;99.90
11838;DHT22;5978;51.020;6.764;2023-07-31T06:38:44;17.60;99.90
11838;DHT22;5978;51.020;6.764;2023-07-31T06:41:09;17.60;99.90
11838;DHT22;5978;51.020;6.764;2023-07-31T06:43:36;17.70;99.90
11838;DHT22;5978;51.020;6.764;2023-07-31T06:46:05;17.80;99.90
11838;DHT22;5978;51.020;6.764;2023-07-31T06:48:32;17.90;99.90
11838;DHT22;5978;51.020;6.764;2023-07-31T06:50:58;18.00;99.90
11838;DHT22;5978;51.020;6.764;2023-07-31T06:53:23;18.10;99.90
11838;DHT22;5978;51.020;6.764;2023-07-31T06:55:49;18.20;99.90
11838;DHT22;5978;51.020;6.764;2023-07-31T06:58:17;18.20;99.90
11838;DHT22;5978;51.020;6.764;2023-07-31T07:00:43;18.30;99.90
11838;DHT22;5978;51.020;6.764;2023-07-31T07:03:08;18.30;99.90
11838;DHT22;5978;51.020;6.764;2023-07-31T07:05:34;18.30;99.90
11838;DHT22;5978;51.020;6.764;2023-07-31T07:07:59;18.40;99.90
11838;DHT22;5978;51.020;6.764;2023-07-31T07:10:25;18.50;99.90
11838;DHT22;5978;51.020;6.764;2023-07-31T07:12:51;18.50;99.90
11838;DHT22;5978;51.020;6.764;2023-07-31T07:15:16;18.50;99.90
11838;DHT22;5978;51.020;6.764;2023-07-31T07:17:42;18.50;99.90
11838;DHT22;5978;51.020;6.764;2023-07-31T07:20:08;18.40;99.90
11838;DHT22;5978;51.020;6.764;2023-07-31T07:22:33;18.30;99.90
11838;DHT22;5978;51.020;6.764;2023-07-31T07:24:59;18.30;99.90
11838;DHT22;5978;51.020;6.764;2023-07-31T07:27:24;18.30;99.90
11838;DHT22;5978;51.020;6.764;2023-07-31T07:29:51;18.20;99.90
11838;DHT22;5978;51.020;6.764;2023-07-31T07:32:18;18.10;99.90
11838;DHT22;5978;51.020;6.764;2023-07-31T07:34:43;18.10;99.90
11838;DHT22;5978;51.020;6.764;2023-07-31T07:37:09;17.90;99.90
11838;DHT22;5978;51.020;6.764;2023-07-31T07:39:35;17.80;99.90
11838;DHT22;5978;51.020;6.764;2023-07-31T07:42:00;17.70;99.90
11838;DHT22;5978;51.020;6.764;2023-07-31T07:44:26;17.60;99.90
11838;DHT22;5978;51.020;6.764;2023-07-31T07:46:52;17.70;99.90
11838;DHT22;5978;51.020;6.764;2023-07-31T07:49:18;17.70;99.90
11838;DHT22;5978;51.020;6.764;2023-07-31T07:51:43;17.70;99.90
11838;DHT22;5978;51.020;6.764;2023-07-31T07:54:09;17.60;99.90
11838;DHT22;5978;51.020;6.764;2023-07-31T07:56:34;17.50;99.90
11838;DHT22;5978;51.020;6.764;2023-07-31T07:59:01;17.40;99.90
11838;DHT22;5978;51.020;6.764;2023-07-31T08:01:27;17.40;99.90
11838;DHT22;5978;51.020;6.764;2023-07-31T08:03:52;17.40;99.90
11838;DHT22;5978;51.020;6.764;2023-07-31T08:06:18;17.40;99.90
11838;DHT22;5978;51.020;6.764;2023-07-31T08:08:44;17.40;99.90
11838;DHT22;5978;51.020;6.764;2023-07-31T08:11:09;17.40;99.90
11838;DHT22;5978;51.020;6.764;2023-07-31T08:13:35;17.50;99.90
11838;DHT22;5978;51.020;6.764;2023-07-31T08:16:03;17.50;99.90
11838;DHT22;5978;51.020;6.764;2023-07-31T08:18:28;17.50;99.90
11838;DHT22;5978;51.020;6.764;2023-07-31T08:20:54;17.60;99.90
11838;DHT22;5978;51.020;6.764;2023-07-31T08:23:19;17.60;99.90
11838;DHT22;5978;51.020;6.764;2023-07-31T08:25:45;17.70;99.90
11838;DHT22;5978;51.020;6.764;2023-07-31T08:28:11;17.80;99.90
11838;DHT22;5978;51.020;6.764;2023-07-31T08:30:37;17.80;99.90
11838;DHT22;5978;51.020;6.764;2023-07-31T08:33:02;17.90;99.90
11838;DHT22;5978;51.020;6.764;2023-07-31T08:35:28;17.90;99.90
11838;DHT22;5978;51.020;6.764;2023-07-31T08:37:54;17.90;99.90
11838;DHT22;5978;51.020;6.764;2023-07-31T08:40:20;18.00;99.90
11838;DHT22;5978;51.020;6.764;2023-07-31T08:42:48;18.10;99.90
11838;DHT22;5978;51.020;6.764;2023-07-31T08:45:15;18.10;99.90
11838;DHT22;5978;51.020;6.764;2023-07-31T08:47:48;18.20;99.90
11838;DHT22;5978;51.020;6.764;2023-07-31T08:50:15;18.20;99.90
11838;DHT22;5978;51.020;6.764;2023-07-31T08:52:41;18.20;99.90
11838;DHT22;5978;51.020;6.764;2023-07-31T08:55:08;18.20;99.90
11838;DHT22;5978;51.020;6.764;2023-07-31T08:57:36;18.30;99.90
11838;DHT22;5978;51.020;6.764;2023-07-31T09:00:03;18.40;99.90
11838;DHT22;5978;51.020;6.764;2023-07-31T09:02:39;18.50;99.90
11838;DHT22;5978;51.020;6.764;2023-07-31T09:05:07;18.50;99.90
11838;DHT22;5978;51.020;6.764;2023-07-31T09:07:34;18.40;99.90
11838;DHT22;5978;51.020;6.764;2023-07-31T09:10:01;18.30;99.90
11838;DHT22;5978;51.020;6.764;2023-07-31T09:12:28;18.30;99.90
11838;DHT22;5978;51.020;6.764;2023-07-31T09:14:53;18.30;99.90
11838;DHT22;5978;51.020;6.764;2023-07-31T09:17:29;18.30;99.90
11838;DHT22;5978;51.020;6.764;2023-07-31T09:19:56;18.20;99.90
11838;DHT22;5978;51.020;6.764;2023-07-31T09:22:35;18.20;99.90
11838;DHT22;5978;51.020;6.764;2023-07-31T09:25:19;18.30;99.90
11838;DHT22;5978;51.020;6.764;2023-07-31T09:30:20;18.70;99.90
11838;DHT22;5978;51.020;6.764;2023-07-31T09:32:47;18.70;99.90
11838;DHT22;5978;51.020;6.764;2023-07-31T09:35:20;18.90;99.90
11838;DHT22;5978;51.020;6.764;2023-07-31T09:37:53;19.10;99.90
11838;DHT22;5978;51.020;6.764;2023-07-31T09:40:29;19.20;99.90
11838;DHT22;5978;51.020;6.764;2023-07-31T09:43:00;19.40;99.90
11838;DHT22;5978;51.020;6.764;2023-07-31T09:45:26;19.40;99.90
11838;DHT22;5978;51.020;6.764;2023-07-31T09:47:53;19.50;99.90
11838;DHT22;5978;51.020;6.764;2023-07-31T09:50:24;19.50;99.90
11838;DHT22;5978;51.020;6.764;2023-07-31T09:52:51;19.60;99.90
11838;DHT22;5978;51.020;6.764;2023-07-31T09:55:18;19.70;99.90
11838;DHT22;5978;51.020;6.764;2023-07-31T09:57:48;19.60;99.90
11838;DHT22;5978;51.020;6.764;2023-07-31T10:00:19;19.60;99.90
11838;DHT22;5978;51.020;6.764;2023-07-31T10:02:46;19.50;99.90
11838;DHT22;5978;51.020;6.764;2023-07-31T10:05:14;19.60;99.90
11838;DHT22;5978;51.020;6.764;2023-07-31T10:07:44;19.70;99.90
11838;DHT22;5978;51.020;6.764;2023-07-31T10:10:11;19.60;99.90
11838;DHT22;5978;51.020;6.764;2023-07-31T10:12:38;19.70;99.90
11838;DHT22;5978;51.020;6.764;2023-07-31T10:15:04;19.60;99.90
11838;DHT22;5978;51.020;6.764;2023-07-31T10:17:31;19.70;99.90
11838;DHT22;5978;51.020;6.764;2023-07-31T10:20:00;19.60;99.90
11838;DHT22;5978;51.020;6.764;2023-07-31T10:22:29;19.70;99.90
11838;DHT22;5978;51.020;6.764;2023-07-31T10:24:58;19.60;99.90
11838;DHT22;5978;51.020;6.764;2023-07-31T10:27:24;19.40;99.90
11838;DHT22;5978;51.020;6.764;2023-07-31T10:29:50;19.30;99.90
11838;DHT22;5978;51.020;6.764;2023-07-31T10:32:17;19.10;99.90
11838;DHT22;5978;51.020;6.764;2023-07-31T10:34:44;19.10;99.90
11838;DHT22;5978;51.020;6.764;2023-07-31T10:37:26;19.20;99.90
11838;DHT22;5978;51.020;6.764;2023-07-31T10:40:03;19.40;99.90
11838;DHT22;5978;51.020;6.764;2023-07-31T10:42:37;19.50;99.90
11838;DHT22;5978;51.020;6.764;2023-07-31T10:45:07;19.50;99.90
11838;DHT22;5978;51.020;6.764;2023-07-31T10:47:43;19.30;99.90
11838;DHT22;5978;51.020;6.764;2023-07-31T10:50:19;19.10;99.90
11838;DHT22;5978;51.020;6.764;2023-07-31T10:52:48;19.00;99.90
11838;DHT22;5978;51.020;6.764;2023-07-31T10:55:29;19.10;99.90
11838;DHT22;5978;51.020;6.764;2023-07-31T10:57:57;19.20;99.90
11838;DHT22;5978;51.020;6.764;2023-07-31T11:00:27;19.50;99.90
11838;DHT22;5978;51.020;6.764;2023-07-31T11:03:05;19.70;99.90
11838;DHT22;5978;51.020;6.764;2023-07-31T11:08:28;20.40;99.90
11838;DHT22;5978;51.020;6.764;2023-07-31T11:15:54;20.70;99.90
11838;DHT22;5978;51.020;6.764;2023-07-31T11:18:20;20.70;99.90
11838;DHT22;5978;51.020;6.764;2023-07-31T11:20:45;20.80;99.90
11838;DHT22;5978;51.020;6.764;2023-07-31T11:23:11;20.90;99.90
11838;DHT22;5978;51.020;6.764;2023-07-31T11:25:39;20.80;99.90
11838;DHT22;5978;51.020;6.764;2023-07-31T11:28:09;20.90;99.90
11838;DHT22;5978;51.020;6.764;2023-07-31T11:30:45;20.70;99.90
11838;DHT22;5978;51.020;6.764;2023-07-31T11:33:12;20.70;99.90
11838;DHT22;5978;51.020;6.764;2023-07-31T11:35:48;20.80;99.90
11838;DHT22;5978;51.020;6.764;2023-07-31T11:38:24;20.90;99.90
11838;DHT22;5978;51.020;6.764;2023-07-31T11:40:54;21.20;99.90
11838;DHT22;5978;51.020;6.764;2023-07-31T11:43:20;21.20;99.90
11838;DHT22;5978;51.020;6.764;2023-07-31T11:46:05;21.10;99.90
11838;DHT22;5978;51.020;6.764;2023-07-31T11:48:33;21.10;99.90
11838;DHT22;5978;51.020;6.764;2023-07-31T11:51:02;21.50;99.90
11838;DHT22;5978;51.020;6.764;2023-07-31T11:53:38;21.60;99.90
11838;DHT22;5978;51.020;6.764;2023-07-31T11:56:06;21.50;99.90
11838;DHT22;5978;51.020;6.764;2023-07-31T11:58:34;21.40;99.90
11838;DHT22;5978;51.020;6.764;2023-07-31T12:01:00;21.50;99.90
11838;DHT22;5978;51.020;6.764;2023-07-31T12:03:27;21.30;99.90
11838;DHT22;5978;51.020;6.764;2023-07-31T12:05:53;21.00;99.90
11838;DHT22;5978;51.020;6.764;2023-07-31T12:08:21;20.70;99.90
11838;DHT22;5978;51.020;6.764;2023-07-31T12:10:46;20.70;99.90
11838;DHT22;5978;51.020;6.764;2023-07-31T12:13:20;20.60;99.90
11838;DHT22;5978;51.020;6.764;2023-07-31T12:15:48;20.50;99.90
11838;DHT22;5978;51.020;6.764;2023-07-31T12:18:23;20.60;99.90
11838;DHT22;5978;51.020;6.764;2023-07-31T12:21:00;20.70;99.90
11838;DHT22;5978;51.020;6.764;2023-07-31T12:23:32;20.50;99.90
11838;DHT22;5978;51.020;6.764;2023-07-31T12:26:06;20.50;99.90
11838;DHT22;5978;51.020;6.764;2023-07-31T12:28:41;20.60;99.90
11838;DHT22;5978;51.020;6.764;2023-07-31T12:31:09;20.60;99.90
11838;DHT22;5978;51.020;6.764;2023-07-31T12:33:36;20.80;99.90
11838;DHT22;5978;51.020;6.764;2023-07-31T12:36:04;20.90;99.90
11838;DHT22;5978;51.020;6.764;2023-07-31T12:38:32;21.20;99.90
11838;DHT22;5978;51.020;6.764;2023-07-31T12:40:57;21.20;99.90
11838;DHT22;5978;51.020;6.764;2023-07-31T12:43:23;21.40;99.90
11838;DHT22;5978;51.020;6.764;2023-07-31T12:45:49;21.40;99.90
11838;DHT22;5978;51.020;6.764;2023-07-31T12:48:14;21.40;99.90
11838;DHT22;5978;51.020;6.764;2023-07-31T12:50:40;21.70;99.90
11838;DHT22;5978;51.020;6.764;2023-07-31T12:53:06;21.80;99.90
11838;DHT22;5978;51.020;6.764;2023-07-31T12:55:32;22.00;99.90
11838;DHT22;5978;51.020;6.764;2023-07-31T12:58:01;22.10;99.90
11838;DHT22;5978;51.020;6.764;2023-07-31T13:00:27;22.20;99.90
11838;DHT22;5978;51.020;6.764;2023-07-31T13:02:53;22.30;99.90
11838;DHT22;5978;51.020;6.764;2023-07-31T13:05:18;22.20;99.90
11838;DHT22;5978;51.020;6.764;2023-07-31T13:07:46;22.10;99.90
11838;DHT22;5978;51.020;6.764;2023-07-31T13:10:12;22.10;99.90
11838;DHT22;5978;51.020;6.764;2023-07-31T13:12:37;22.00;99.90
11838;DHT22;5978;51.020;6.764;2023-07-31T13:15:07;21.70;99.90
11838;DHT22;5978;51.020;6.764;2023-07-31T13:17:33;21.40;99.90
11838;DHT22;5978;51.020;6.764;2023-07-31T13:19:58;21.40;99.90
11838;DHT22;5978;51.020;6.764;2023-07-31T13:22:24;21.40;99.90
11838;DHT22;5978;51.020;6.764;2023-07-31T13:24:50;21.40;99.90
11838;DHT22;5978;51.020;6.764;2023-07-31T13:27:16;21.60;99.90
11838;DHT22;5978;51.020;6.764;2023-07-31T13:29:44;21.70;99.90
11838;DHT22;5978;51.020;6.764;2023-07-31T13:32:10;22.00;99.90
11838;DHT22;5978;51.020;6.764;2023-07-31T13:34:35;22.20;99.90
11838;DHT22;5978;51.020;6.764;2023-07-31T13:37:01;22.20;99.90
11838;DHT22;5978;51.020;6.764;2023-07-31T13:39:27;22.10;99.90
11838;DHT22;5978;51.020;6.764;2023-07-31T13:41:52;22.10;99.90
11838;DHT22;5978;51.020;6.764;2023-07-31T13:44:18;22.30;99.90
11838;DHT22;5978;51.020;6.764;2023-07-31T13:46:44;22.40;99.90
11838;DHT22;5978;51.020;6.764;2023-07-31T13:49:09;22.90;99.90
11838;DHT22;5978;51.020;6.764;2023-07-31T13:51:35;23.70;99.90
11838;DHT22;5978;51.020;6.764;2023-07-31T13:54:01;24.50;99.90
11838;DHT22;5978;51.020;6.764;2023-07-31T13:56:27;25.40;99.90
11838;DHT22;5978;51.020;6.764;2023-07-31T13:58:52;25.70;99.90
11838;DHT22;5978;51.020;6.764;2023-07-31T14:01:18;25.60;99.90
11838;DHT22;5978;51.020;6.764;2023-07-31T14:03:43;25.10;99.90
11838;DHT22;5978;51.020;6.764;2023-07-31T14:06:09;24.70;99.90
11838;DHT22;5978;51.020;6.764;2023-07-31T14:08:35;24.20;99.90
11838;DHT22;5978;51.020;6.764;2023-07-31T14:11:00;24.00;99.90
11838;DHT22;5978;51.020;6.764;2023-07-31T14:13:26;23.70;99.90
11838;DHT22;5978;51.020;6.764;2023-07-31T14:15:51;23.30;99.90
11838;DHT22;5978;51.020;6.764;2023-07-31T14:18:18;23.10;99.90
11838;DHT22;5978;51.020;6.764;2023-07-31T14:20:43;22.80;99.90
11838;DHT22;5978;51.020;6.764;2023-07-31T14:23:09;22.50;99.90
11838;DHT22;5978;51.020;6.764;2023-07-31T14:25:35;22.20;99.90
11838;DHT22;5978;51.020;6.764;2023-07-31T14:28:00;22.10;99.90
11838;DHT22;5978;51.020;6.764;2023-07-31T14:30:26;22.10;99.90
11838;DHT22;5978;51.020;6.764;2023-07-31T14:32:51;22.10;99.90
11838;DHT22;5978;51.020;6.764;2023-07-31T14:35:17;22.10;99.90
11838;DHT22;5978;51.020;6.764;2023-07-31T14:37:44;22.10;99.90
11838;DHT22;5978;51.020;6.764;2023-07-31T14:40:11;22.30;99.90
11838;DHT22;5978;51.020;6.764;2023-07-31T14:42:38;22.40;99.90
11838;DHT22;5978;51.020;6.764;2023-07-31T14:45:04;22.60;99.90
11838;DHT22;5978;51.020;6.764;2023-07-31T14:47:30;22.60;99.90
11838;DHT22;5978;51.020;6.764;2023-07-31T14:49:59;22.50;99.90
11838;DHT22;5978;51.020;6.764;2023-07-31T14:52:25;22.50;99.90
11838;DHT22;5978;51.020;6.764;2023-07-31T14:54:51;22.50;99.90
11838;DHT22;5978;51.020;6.764;2023-07-31T14:57:17;22.30;99.90
11838;DHT22;5978;51.020;6.764;2023-07-31T14:59:43;22.30;99.90
11838;DHT22;5978;51.020;6.764;2023-07-31T15:02:09;22.30;99.90
11838;DHT22;5978;51.020;6.764;2023-07-31T15:04:35;22.10;99.90
11838;DHT22;5978;51.020;6.764;2023-07-31T15:07:01;22.00;99.90
11838;DHT22;5978;51.020;6.764;2023-07-31T15:09:26;21.90;99.90
11838;DHT22;5978;51.020;6.764;2023-07-31T15:11:52;21.90;99.90
11838;DHT22;5978;51.020;6.764;2023-07-31T15:14:17;21.80;99.90
11838;DHT22;5978;51.020;6.764;2023-07-31T15:16:43;21.80;99.90
11838;DHT22;5978;51.020;6.764;2023-07-31T15:19:08;21.80;99.90
11838;DHT22;5978;51.020;6.764;2023-07-31T15:21:36;21.70;99.90
11838;DHT22;5978;51.020;6.764;2023-07-31T15:24:02;21.50;99.90
11838;DHT22;5978;51.020;6.764;2023-07-31T15:26:27;21.40;99.90
11838;DHT22;5978;51.020;6.764;2023-07-31T15:29:01;21.40;99.90
11838;DHT22;5978;51.020;6.764;2023-07-31T15:31:28;21.30;99.90
11838;DHT22;5978;51.020;6.764;2023-07-31T15:33:53;21.30;99.90
11838;DHT22;5978;51.020;6.764;2023-07-31T15:36:19;21.20;99.90
11838;DHT22;5978;51.020;6.764;2023-07-31T15:38:44;21.10;99.90
11838;DHT22;5978;51.020;6.764;2023-07-31T15:41:11;21.10;99.90
11838;DHT22;5978;51.020;6.764;2023-07-31T15:43:37;21.00;99.90
11838;DHT22;5978;51.020;6.764;2023-07-31T15:46:02;21.00;99.90
11838;DHT22;5978;51.020;6.764;2023-07-31T15:48:28;21.10;99.90
11838;DHT22;5978;51.020;6.764;2023-07-31T15:50:53;20.90;99.90
11838;DHT22;5978;51.020;6.764;2023-07-31T15:53:19;20.70;99.90
11838;DHT22;5978;51.020;6.764;2023-07-31T15:55:44;20.50;99.90